Time;durP1;ratioP1;P1;durP2;ratioP2;P2;SDS_P1;SDS_P2;PMS_P1;PMS_P2;Temp;Humidity;BMP_temperature;BMP_pressure;BME280_temperature;BME280_humidity;BME280_pressure;Samples;Min_cycle;Max_cycle;Signal;HPM_P1;HPM_P2
2021/05/10 00:01:29;;;;;;;4.57;2.90;;;15.50;99.90;;;;;;4958117;28;20194;-89
2021/05/10 00:03:55;;;;;;;3.40;2.50;;;15.40;99.90;;;;;;4964415;28;20597;-89
2021/05/10 00:06:22;;;;;;;6.73;2.50;;;15.40;99.90;;;;;;4994222;28;20485;-89
2021/05/10 00:08:48;;;;;;;2.77;2.37;;;15.30;99.90;;;;;;4963784;28;20182;-88
2021/05/10 00:11:15;;;;;;;3.33;2.37;;;15.30;99.90;;;;;;4983829;28;21070;-88
2021/05/10 00:13:47;;;;;;;2.50;2.30;;;15.40;99.90;;;;;;4958154;28;20268;-88
2021/05/10 00:16:15;;;;;;;2.30;2.20;;;15.50;99.90;;;;;;4999015;28;20523;-88
2021/05/10 00:18:41;;;;;;;2.53;2.03;;;15.60;99.90;;;;;;4965704;28;20852;-87
2021/05/10 00:21:07;;;;;;;2.27;2.13;;;15.70;99.90;;;;;;4963291;28;20457;-88
2021/05/10 00:23:32;;;;;;;2.50;2.30;;;15.70;99.90;;;;;;4977516;28;20198;-89
2021/05/10 00:25:58;;;;;;;2.30;1.97;;;15.60;99.90;;;;;;4967633;28;20181;-90
2021/05/10 00:28:24;;;;;;;2.57;2.37;;;15.40;99.90;;;;;;4959741;28;20222;-90
2021/05/10 00:30:49;;;;;;;4.87;2.40;;;15.20;99.90;;;;;;4962477;28;20711;-89
2021/05/10 00:33:18;;;;;;;2.20;2.00;;;15.10;99.90;;;;;;4967942;28;20284;-89
2021/05/10 00:35:43;;;;;;;2.40;2.20;;;15.00;99.90;;;;;;4963960;28;20264;-90
2021/05/10 00:38:09;;;;;;;2.43;2.23;;;14.90;99.90;;;;;;4965847;28;20480;-90
2021/05/10 00:40:35;;;;;;;3.10;2.80;;;14.90;99.90;;;;;;4963576;28;20520;-90
2021/05/10 00:43:01;;;;;;;3.30;3.00;;;14.80;99.90;;;;;;4968751;28;20440;-88
2021/05/10 00:45:27;;;;;;;2.97;2.40;;;14.80;99.90;;;;;;4964290;28;20592;-88
2021/05/10 00:47:53;;;;;;;3.70;3.40;;;14.80;99.90;;;;;;4964771;28;20535;-87
2021/05/10 00:50:20;;;;;;;3.03;2.53;;;14.70;99.90;;;;;;4963951;28;20943;-88
2021/05/10 00:52:46;;;;;;;2.60;2.40;;;14.70;99.90;;;;;;4967574;28;20186;-87
2021/05/10 00:55:13;;;;;;;2.97;2.53;;;14.60;99.90;;;;;;4966167;28;20823;-90
2021/05/10 00:57:48;;;;;;;2.33;2.13;;;14.70;99.90;;;;;;4967517;28;21006;-89
2021/05/10 01:00:15;;;;;;;3.00;1.60;;;14.60;99.90;;;;;;4983361;28;20453;-90
2021/05/10 01:02:44;;;;;;;2.80;1.90;;;14.60;99.90;;;;;;4967953;28;20452;-89
2021/05/10 01:05:11;;;;;;;2.10;1.87;;;14.60;99.90;;;;;;4969534;28;22418;-90
2021/05/10 01:07:37;;;;;;;5.17;3.10;;;14.50;99.90;;;;;;4964473;28;20590;-90
2021/05/10 01:10:10;;;;;;;3.90;3.07;;;14.40;99.90;;;;;;4964520;28;21699;-89
2021/05/10 01:12:37;;;;;;;2.50;2.30;;;14.30;99.90;;;;;;4968917;28;20798;-89
2021/05/10 01:15:08;;;;;;;2.70;2.50;;;14.30;99.90;;;;;;4963752;28;20873;-90
2021/05/10 01:17:38;;;;;;;2.47;2.27;;;14.20;99.90;;;;;;4967838;28;21116;-90
2021/05/10 01:20:07;;;;;;;2.40;2.20;;;14.20;99.90;;;;;;4966815;28;20436;-89
2021/05/10 01:22:49;;;;;;;3.00;2.70;;;14.10;99.90;;;;;;4966331;28;20442;-90
2021/05/10 01:25:19;;;;;;;2.73;2.53;;;14.00;99.90;;;;;;4998810;28;20440;-89
2021/05/10 01:27:49;;;;;;;2.60;2.40;;;14.00;99.90;;;;;;4981521;28;20528;-88
2021/05/10 01:30:39;;;;;;;2.30;2.20;;;14.00;99.90;;;;;;4965446;28;20863;-88
2021/05/10 01:33:06;;;;;;;2.33;2.23;;;13.90;99.90;;;;;;4966044;28;20946;-89
2021/05/10 01:35:36;;;;;;;2.37;2.17;;;13.80;99.90;;;;;;4967929;28;20548;-88
2021/05/10 01:38:02;;;;;;;2.30;2.10;;;13.80;99.90;;;;;;5000076;28;20468;-88
2021/05/10 01:40:28;;;;;;;2.30;2.10;;;13.70;99.90;;;;;;4963455;28;20453;-88
2021/05/10 01:42:54;;;;;;;2.70;2.50;;;13.70;99.90;;;;;;4966598;28;20769;-88
2021/05/10 01:45:20;;;;;;;2.90;2.57;;;13.80;99.90;;;;;;4969646;28;20432;-87
2021/05/10 01:47:46;;;;;;;2.17;2.07;;;13.80;99.90;;;;;;4983613;28;21035;-89
2021/05/10 01:50:13;;;;;;;2.23;2.03;;;13.90;99.90;;;;;;4967292;28;20658;-89
2021/05/10 01:52:39;;;;;;;2.43;2.23;;;13.90;99.90;;;;;;4984060;28;20660;-89
2021/05/10 01:55:27;;;;;;;2.67;2.20;;;13.90;99.90;;;;;;4965388;28;20447;-88
2021/05/10 01:57:58;;;;;;;3.10;2.40;;;13.90;99.90;;;;;;4959415;28;20659;-89
2021/05/10 02:00:30;;;;;;;2.97;1.90;;;13.90;99.90;;;;;;4962010;28;20446;-89
2021/05/10 02:03:19;;;;;;;2.50;2.30;;;13.90;99.90;;;;;;4961253;28;20808;-88
2021/05/10 02:05:46;;;;;;;1.90;1.80;;;13.90;99.90;;;;;;4963131;28;20846;-88
2021/05/10 02:08:13;;;;;;;2.27;2.17;;;14.00;99.90;;;;;;4963847;28;20444;-88
2021/05/10 02:11:03;;;;;;;2.40;2.10;;;14.10;99.90;;;;;;4967654;28;20420;-87
2021/05/10 02:13:58;;;;;;;2.87;2.13;;;14.10;99.90;;;;;;4984151;28;20474;-87
2021/05/10 02:16:27;;;;;;;3.20;2.50;;;14.10;99.90;;;;;;4982620;28;20488;-88
2021/05/10 02:18:56;;;;;;;2.47;2.27;;;14.20;99.90;;;;;;4976408;28;20441;-88
2021/05/10 02:21:29;;;;;;;2.70;2.50;;;14.20;99.90;;;;;;4965037;28;20580;-89
2021/05/10 02:23:54;;;;;;;2.70;2.50;;;14.30;99.90;;;;;;4964597;28;20833;-89
2021/05/10 02:26:20;;;;;;;2.27;2.07;;;14.30;99.90;;;;;;4965273;28;20456;-88
2021/05/10 02:28:45;;;;;;;2.77;2.57;;;14.30;99.90;;;;;;4976327;28;20817;-88
2021/05/10 02:31:11;;;;;;;2.70;2.50;;;14.40;99.90;;;;;;4966268;28;20288;-88
2021/05/10 02:33:37;;;;;;;2.97;2.77;;;14.40;99.90;;;;;;4971086;28;20707;-89
2021/05/10 02:36:03;;;;;;;2.43;2.30;;;14.40;99.90;;;;;;4969589;28;20276;-89
2021/05/10 02:38:29;;;;;;;2.43;2.33;;;14.50;99.90;;;;;;4970112;28;20197;-87
2021/05/10 02:40:55;;;;;;;2.43;2.30;;;14.50;99.90;;;;;;4968584;28;20444;-87
2021/05/10 02:43:23;;;;;;;2.60;2.40;;;14.40;99.90;;;;;;4971103;28;20185;-87
2021/05/10 02:45:50;;;;;;;4.27;2.40;;;14.30;99.90;;;;;;4969359;28;20771;-88
2021/05/10 02:48:16;;;;;;;3.20;2.27;;;14.20;99.90;;;;;;4968789;28;20464;-87
2021/05/10 02:50:42;;;;;;;3.10;2.70;;;14.10;99.90;;;;;;4965846;28;20449;-86
2021/05/10 02:53:08;;;;;;;3.53;2.57;;;14.10;99.90;;;;;;4967263;28;21025;-87
2021/05/10 02:55:34;;;;;;;4.23;3.17;;;14.00;99.90;;;;;;4972015;28;20253;-87
2021/05/10 02:57:59;;;;;;;3.50;3.20;;;14.00;99.90;;;;;;4969756;28;20221;-88
2021/05/10 03:00:30;;;;;;;3.90;3.17;;;13.90;99.90;;;;;;4968225;28;20191;-87
2021/05/10 03:02:56;;;;;;;2.33;2.20;;;13.90;99.90;;;;;;4952836;28;20210;-88
2021/05/10 03:05:23;;;;;;;1.97;1.83;;;13.80;99.90;;;;;;4969112;28;20468;-88
2021/05/10 03:07:49;;;;;;;2.67;2.40;;;13.60;99.90;;;;;;4969351;28;20993;-89
2021/05/10 03:10:17;;;;;;;2.50;2.30;;;13.60;99.90;;;;;;4987327;28;20464;-88
2021/05/10 03:12:43;;;;;;;2.10;1.90;;;13.70;99.90;;;;;;4973053;28;20547;-87
2021/05/10 03:15:14;;;;;;;3.90;2.70;;;13.80;99.90;;;;;;4968832;28;20449;-87
2021/05/10 03:17:40;;;;;;;3.03;2.73;;;13.80;99.90;;;;;;4969383;28;20858;-87
2021/05/10 03:20:11;;;;;;;2.80;2.60;;;13.70;99.90;;;;;;4971197;28;21175;-86
2021/05/10 03:22:39;;;;;;;4.20;1.93;;;13.60;99.90;;;;;;4990579;28;20465;-89
2021/05/10 03:25:06;;;;;;;2.50;2.30;;;13.70;99.90;;;;;;4969446;28;20531;-88
2021/05/10 03:27:39;;;;;;;3.40;2.50;;;13.70;99.90;;;;;;4968237;28;20460;-88
2021/05/10 03:30:09;;;;;;;2.60;2.40;;;13.70;99.90;;;;;;4969411;28;20958;-88
2021/05/10 03:32:36;;;;;;;2.67;2.47;;;13.70;99.90;;;;;;4969503;28;20464;-87
2021/05/10 03:35:02;;;;;;;2.90;2.60;;;13.70;99.90;;;;;;4967043;28;20499;-86
2021/05/10 03:37:29;;;;;;;2.47;2.27;;;13.60;99.90;;;;;;4970058;28;20448;-87
2021/05/10 03:39:55;;;;;;;2.63;2.43;;;13.70;99.90;;;;;;4969359;28;20483;-87
2021/05/10 03:42:21;;;;;;;3.60;2.63;;;13.90;99.90;;;;;;4968580;28;20868;-86
2021/05/10 03:44:47;;;;;;;3.47;2.80;;;14.00;99.90;;;;;;4967374;28;20209;-87
2021/05/10 03:47:13;;;;;;;3.70;3.40;;;14.20;99.90;;;;;;4971039;28;20256;-89
2021/05/10 03:49:38;;;;;;;3.20;2.97;;;14.40;99.90;;;;;;4968865;28;20185;-86
2021/05/10 03:52:04;;;;;;;4.50;3.03;;;14.50;99.90;;;;;;4970275;28;20193;-86
2021/05/10 03:54:30;;;;;;;3.30;3.10;;;14.50;99.90;;;;;;4967808;28;20191;-87
2021/05/10 03:56:55;;;;;;;3.80;3.20;;;14.50;99.90;;;;;;4969784;28;20229;-87
2021/05/10 03:59:22;;;;;;;3.47;3.17;;;14.60;99.90;;;;;;4968534;28;20276;-87
2021/05/10 04:02:01;;;;;;;3.40;3.10;;;14.60;99.90;;;;;;4967285;28;20185;-89
2021/05/10 04:04:36;;;;;;;3.63;3.23;;;14.60;99.90;;;;;;4966418;28;20436;-87
2021/05/10 04:09:52;;;;;;;3.83;3.33;;;14.70;99.90;;;;;;4987407;28;20443;-86
2021/05/10 04:15:02;;;;;;;3.60;3.30;;;14.70;99.90;;;;;;4981932;28;20499;-86
2021/05/10 04:17:28;;;;;;;3.33;3.13;;;14.70;99.90;;;;;;4982097;28;20449;-88
2021/05/10 04:19:54;;;;;;;4.27;3.43;;;14.80;99.90;;;;;;4967999;28;20994;-88
2021/05/10 04:22:19;;;;;;;3.67;3.37;;;14.80;99.90;;;;;;4968539;28;20718;-88
2021/05/10 04:24:45;;;;;;;3.83;3.07;;;15.00;99.90;;;;;;4966507;28;20186;-86
2021/05/10 04:27:10;;;;;;;4.40;3.30;;;15.00;99.90;;;;;;4968463;28;20182;-87
2021/05/10 04:29:36;;;;;;;5.90;3.20;;;15.00;99.90;;;;;;4970928;28;20196;-86
2021/05/10 04:32:02;;;;;;;3.13;2.83;;;15.10;99.90;;;;;;4969179;28;20272;-87
2021/05/10 04:34:27;;;;;;;2.90;2.70;;;15.20;99.90;;;;;;4969744;28;20241;-88
2021/05/10 04:36:53;;;;;;;5.43;3.50;;;15.30;99.90;;;;;;4968194;28;20315;-89
2021/05/10 04:50:11;;;;;;;2.67;2.50;;;15.40;99.90;;;;;;6291774;22;824336;-89
2021/05/10 04:52:38;;;;;;;4.80;2.73;;;15.50;99.90;;;;;;6248836;22;21345;-89
2021/05/10 04:55:11;;;;;;;10.43;3.30;;;15.60;99.90;;;;;;6277067;22;20376;-89
2021/05/10 04:57:36;;;;;;;3.60;2.40;;;15.80;99.90;;;;;;6250173;22;20973;-88
2021/05/10 05:00:05;;;;;;;5.60;3.10;;;16.10;99.90;;;;;;6248803;22;20392;-88
2021/05/10 05:02:30;;;;;;;2.93;2.70;;;16.40;99.90;;;;;;6249308;22;20231;-89
2021/05/10 05:04:58;;;;;;;2.50;2.30;;;16.50;99.90;;;;;;6250376;22;20851;-89
2021/05/10 05:07:24;;;;;;;3.33;2.40;;;16.60;99.90;;;;;;6248435;22;20185;-89
2021/05/10 05:09:49;;;;;;;3.00;2.80;;;16.60;99.90;;;;;;6246125;22;20399;-89
2021/05/10 05:12:15;;;;;;;5.53;3.43;;;16.40;99.90;;;;;;6249590;22;20181;-89
2021/05/10 05:14:41;;;;;;;4.43;2.90;;;16.20;99.90;;;;;;6247928;22;20158;-89
2021/05/10 05:17:07;;;;;;;2.83;2.63;;;16.20;99.90;;;;;;6247282;22;20620;-89
2021/05/10 05:19:33;;;;;;;5.53;2.63;;;16.20;99.90;;;;;;6249739;22;20197;-89
2021/05/10 05:21:59;;;;;;;2.90;2.70;;;16.30;99.90;;;;;;6249819;22;20165;-90
2021/05/10 05:24:25;;;;;;;7.27;3.17;;;16.40;99.90;;;;;;6248987;22;20392;-89
2021/05/10 05:26:51;;;;;;;5.20;3.23;;;16.60;99.90;;;;;;6249863;22;20196;-89
2021/05/10 05:29:19;;;;;;;3.20;3.00;;;16.70;99.90;;;;;;6250583;22;20597;-90
2021/05/10 05:31:45;;;;;;;5.73;3.60;;;16.70;99.90;;;;;;6248346;22;20158;-89
2021/05/10 05:34:11;;;;;;;3.37;3.17;;;16.70;99.90;;;;;;6248182;22;20392;-90
2021/05/10 05:36:37;;;;;;;4.50;3.60;;;16.70;99.90;;;;;;6247324;22;20432;-90
2021/05/10 05:39:07;;;;;;;5.93;3.23;;;16.80;99.90;;;;;;6249930;22;20189;-89
2021/05/10 05:41:46;;;;;;;6.63;3.70;;;16.80;99.90;;;;;;6277127;22;20158;-92
2021/05/10 05:44:17;;;;;;;4.40;3.93;;;16.90;99.90;;;;;;6249863;22;20733;-90
2021/05/10 05:46:48;;;;;;;3.17;2.87;;;16.90;99.90;;;;;;6250077;22;20475;-93
2021/05/10 05:49:14;;;;;;;5.43;3.10;;;17.00;99.90;;;;;;6255037;22;20393;-95
2021/05/10 05:51:40;;;;;;;3.00;2.80;;;17.10;99.90;;;;;;6251010;22;20412;-95
2021/05/10 06:01:53;;;;;;;3.50;3.00;;;17.50;99.90;;;;;;6186235;23;20465;-86
2021/05/10 06:04:26;;;;;;;3.93;3.53;;;17.70;99.90;;;;;;6178557;23;20749;-86
2021/05/10 06:06:52;;;;;;;3.40;3.10;;;17.90;98.80;;;;;;6151234;23;20482;-86
2021/05/10 06:09:17;;;;;;;7.87;3.43;;;17.90;99.20;;;;;;6152025;23;20427;-86
2021/05/10 06:12:02;;;;;;;5.60;4.10;;;18.10;97.90;;;;;;6152098;23;20217;-87
2021/05/10 06:14:27;;;;;;;8.30;4.77;;;18.20;98.70;;;;;;6175654;23;20347;-87
2021/05/10 06:16:53;;;;;;;8.50;3.90;;;18.20;97.90;;;;;;6151051;23;20413;-87
2021/05/10 06:19:21;;;;;;;5.33;4.13;;;17.90;97.40;;;;;;6150947;23;20218;-89
2021/05/10 06:21:47;;;;;;;4.93;4.20;;;17.90;97.60;;;;;;6152230;23;20161;-87
2021/05/10 06:24:12;;;;;;;6.23;4.33;;;18.30;98.90;;;;;;6150939;23;20408;-88
2021/05/10 06:26:40;;;;;;;3.53;3.20;;;18.50;99.90;;;;;;6151014;23;20217;-88
2021/05/10 06:29:06;;;;;;;3.90;3.60;;;18.80;99.90;;;;;;6150839;23;20164;-89
2021/05/10 06:31:31;;;;;;;5.93;3.90;;;19.20;99.90;;;;;;6150297;23;20443;-89
2021/05/10 06:33:57;;;;;;;3.87;3.50;;;19.60;99.90;;;;;;6149996;23;20635;-88
2021/05/10 06:36:23;;;;;;;3.17;2.87;;;19.90;99.90;;;;;;6150857;23;20191;-90
2021/05/10 06:38:49;;;;;;;2.73;2.50;;;20.10;99.90;;;;;;6150350;23;20693;-91
2021/05/10 06:41:14;;;;;;;3.87;2.60;;;20.30;96.20;;;;;;6151838;23;20391;-90
2021/05/10 06:44:10;;;;;;;3.50;2.93;;;20.20;94.50;;;;;;6149690;23;20199;-91
2021/05/10 06:46:36;;;;;;;2.30;2.10;;;20.20;92.00;;;;;;6144435;23;20245;-87
2021/05/10 06:49:02;;;;;;;2.40;2.10;;;20.40;88.90;;;;;;6151343;23;20399;-84
2021/05/10 06:51:30;;;;;;;3.03;2.83;;;20.20;86.60;;;;;;6176467;23;20164;-87
2021/05/10 06:54:06;;;;;;;2.50;2.30;;;20.10;86.50;;;;;;6177323;23;20168;-86
2021/05/10 06:56:32;;;;;;;2.60;2.40;;;20.10;85.90;;;;;;6149939;23;20453;-89
2021/05/10 06:58:59;;;;;;;2.43;2.27;;;20.00;85.60;;;;;;6132640;23;20443;-87
2021/05/10 07:01:25;;;;;;;2.67;2.43;;;20.00;85.80;;;;;;6177804;23;20414;-85
2021/05/10 07:03:52;;;;;;;2.33;2.13;;;20.10;85.70;;;;;;6204762;23;20399;-84
2021/05/10 07:09:30;;;;;;;2.70;1.90;;;20.40;85.50;;;;;;6206227;23;20402;-86
2021/05/10 07:12:04;;;;;;;10.60;2.60;;;20.60;87.70;;;;;;6205754;23;20465;-86
2021/05/10 07:14:30;;;;;;;7.33;2.90;;;20.50;91.60;;;;;;6204459;23;20401;-86
2021/05/10 07:16:57;;;;;;;7.57;2.70;;;20.20;91.60;;;;;;6204898;23;20881;-86
2021/05/10 07:19:23;;;;;;;6.90;3.07;;;20.20;92.70;;;;;;6205490;23;20226;-85
2021/05/10 07:21:49;;;;;;;5.87;3.10;;;20.20;94.20;;;;;;6206177;23;20419;-86
2021/05/10 07:24:15;;;;;;;4.93;3.10;;;20.30;94.60;;;;;;6201929;23;20383;-85
2021/05/10 07:26:41;;;;;;;4.80;2.83;;;20.20;94.60;;;;;;6204500;23;20437;-85
2021/05/10 07:29:07;;;;;;;7.20;3.00;;;20.30;95.80;;;;;;6204288;23;20390;-84
2021/05/10 07:31:33;;;;;;;4.93;2.80;;;20.20;95.40;;;;;;6204079;23;20479;-85
2021/05/10 07:33:59;;;;;;;3.27;2.60;;;20.30;95.60;;;;;;6203746;23;20594;-85
2021/05/10 07:36:25;;;;;;;4.80;2.70;;;20.60;96.60;;;;;;6206478;23;20159;-85
2021/05/10 07:38:50;;;;;;;6.33;2.70;;;20.90;94.20;;;;;;6204639;23;20772;-86
2021/05/10 07:41:16;;;;;;;2.83;2.63;;;21.20;94.80;;;;;;6204310;23;20163;-86
2021/05/10 07:43:42;;;;;;;2.87;2.67;;;21.50;93.80;;;;;;6205572;23;20560;-85
2021/05/10 07:46:08;;;;;;;5.00;2.77;;;21.50;93.10;;;;;;6203799;23;20242;-84
2021/05/10 07:48:33;;;;;;;3.90;3.10;;;21.70;92.90;;;;;;6202545;23;20446;-83
2021/05/10 07:50:59;;;;;;;3.80;2.73;;;21.80;92.20;;;;;;6204023;23;20250;-84
2021/05/10 07:53:25;;;;;;;3.43;3.00;;;22.00;92.60;;;;;;6203901;23;20175;-84
2021/05/10 07:55:50;;;;;;;4.70;2.63;;;22.00;91.70;;;;;;6204012;23;20164;-84
2021/05/10 07:58:26;;;;;;;4.07;3.67;;;22.10;92.10;;;;;;6203391;23;20302;-84
2021/05/10 08:00:56;;;;;;;2.47;2.27;;;22.10;91.70;;;;;;6203724;23;20183;-84
2021/05/10 08:03:26;;;;;;;4.33;2.40;;;21.60;92.30;;;;;;6204427;23;20869;-85
2021/05/10 08:05:52;;;;;;;3.77;3.03;;;21.40;91.90;;;;;;6204366;23;20395;-85
2021/05/10 08:08:21;;;;;;;2.90;2.70;;;21.20;91.20;;;;;;6205093;23;20729;-86
2021/05/10 08:10:55;;;;;;;4.30;3.00;;;20.80;91.50;;;;;;6208377;23;20164;-95
2021/05/10 08:13:23;;;;;;;4.27;3.40;;;20.80;92.30;;;;;;6207676;23;20453;-94
2021/05/10 08:15:49;;;;;;;8.43;3.50;;;20.90;92.60;;;;;;6212812;23;20444;-89
2021/05/10 08:18:16;;;;;;;5.30;3.40;;;21.00;92.60;;;;;;6206099;23;20442;-90
2021/05/10 08:20:44;;;;;;;3.97;2.90;;;21.50;92.80;;;;;;6211883;23;20159;-94
2021/05/10 08:23:11;;;;;;;3.80;2.97;;;22.00;92.20;;;;;;6205931;23;20402;-91
2021/05/10 08:25:37;;;;;;;5.20;3.00;;;22.20;91.90;;;;;;6205396;23;20473;-91
2021/05/10 08:28:04;;;;;;;5.73;3.00;;;22.40;91.70;;;;;;6206099;23;20399;-90
2021/05/10 08:30:30;;;;;;;3.93;2.80;;;22.40;90.70;;;;;;6206447;23;20398;-92
2021/05/10 08:32:57;;;;;;;5.50;3.10;;;22.60;91.70;;;;;;6205507;23;20395;-91
2021/05/10 08:35:32;;;;;;;2.83;2.63;;;22.80;92.30;;;;;;6205013;23;20383;-92
2021/05/10 08:38:08;;;;;;;3.47;2.57;;;23.40;92.30;;;;;;6200283;23;20447;-93
2021/05/10 08:40:35;;;;;;;3.13;2.73;;;24.00;91.00;;;;;;6207447;23;20395;-94
2021/05/10 08:43:01;;;;;;;4.57;2.70;;;23.80;90.80;;;;;;6205417;23;20225;-95
2021/05/10 08:48:06;;;;;;;3.03;2.73;;;24.00;89.80;;;;;;6267211;22;20447;-94
2021/05/10 08:50:36;;;;;;;3.07;2.77;;;24.10;91.80;;;;;;6274577;22;20397;-96
2021/05/10 08:53:04;;;;;;;4.00;3.03;;;24.50;91.50;;;;;;6279108;22;20464;-92
2021/05/10 08:55:30;;;;;;;6.30;3.07;;;25.00;89.20;;;;;;6271369;22;20401;-92
2021/05/10 08:57:55;;;;;;;3.73;3.10;;;24.60;85.90;;;;;;6265533;22;20490;-91
2021/05/10 09:00:28;;;;;;;3.63;2.70;;;24.70;86.80;;;;;;6267714;22;20170;-95
2021/05/10 09:03:11;;;;;;;3.17;2.87;;;24.60;85.60;;;;;;6269559;22;20153;-93
2021/05/10 09:05:49;;;;;;;4.83;2.67;;;24.50;87.60;;;;;;6264890;22;20404;-93
2021/05/10 09:08:15;;;;;;;5.70;2.93;;;24.90;86.50;;;;;;6269706;22;20377;-94
2021/05/10 09:10:42;;;;;;;4.23;2.53;;;24.90;88.20;;;;;;6268785;22;20435;-93
2021/05/10 09:13:08;;;;;;;6.20;3.03;;;24.80;87.20;;;;;;6267510;22;20393;-90
2021/05/10 09:15:35;;;;;;;3.10;2.80;;;24.80;88.60;;;;;;6267121;22;20393;-89
2021/05/10 09:18:09;;;;;;;2.90;2.60;;;24.90;88.10;;;;;;6265346;22;20475;-89
2021/05/10 09:20:37;;;;;;;3.33;2.97;;;24.90;90.20;;;;;;6263054;22;20436;-89
2021/05/10 09:23:08;;;;;;;5.13;2.97;;;24.70;87.70;;;;;;6265860;22;20710;-89
2021/05/10 09:25:36;;;;;;;4.30;3.10;;;24.10;87.60;;;;;;6266997;22;20401;-89
2021/05/10 09:28:19;;;;;;;2.93;2.73;;;23.50;89.60;;;;;;6267344;22;20384;-89
2021/05/10 09:30:49;;;;;;;3.40;2.97;;;23.70;91.40;;;;;;6267681;22;20464;-89
2021/05/10 09:33:24;;;;;;;3.47;3.10;;;23.90;89.80;;;;;;6259023;22;20735;-89
2021/05/10 09:35:58;;;;;;;3.30;2.50;;;24.20;90.70;;;;;;6266117;22;20743;-89
2021/05/10 09:38:29;;;;;;;4.20;2.70;;;24.30;90.00;;;;;;6266493;22;20444;-89
2021/05/10 09:40:57;;;;;;;5.03;3.07;;;23.70;89.60;;;;;;6266942;22;20415;-91
2021/05/10 09:43:28;;;;;;;3.60;2.70;;;23.70;90.50;;;;;;6265565;22;20782;-88
2021/05/10 09:45:57;;;;;;;3.50;3.20;;;22.90;90.30;;;;;;6266391;22;20392;-86
2021/05/10 09:48:28;;;;;;;4.40;3.47;;;22.70;91.10;;;;;;6240701;22;20448;-84
2021/05/10 09:51:03;;;;;;;2.90;2.70;;;22.70;92.30;;;;;;6267043;22;20480;-84
2021/05/10 09:53:39;;;;;;;2.70;2.50;;;22.50;91.70;;;;;;6265282;22;20408;-84
2021/05/10 09:56:12;;;;;;;5.87;3.10;;;22.50;92.50;;;;;;6266610;22;20400;-86
2021/05/10 09:58:44;;;;;;;4.30;3.07;;;22.90;94.10;;;;;;6267258;22;20945;-87
2021/05/10 10:01:10;;;;;;;3.63;2.80;;;23.60;91.50;;;;;;6267108;22;20385;-87
2021/05/10 10:03:50;;;;;;;7.33;3.30;;;23.90;92.00;;;;;;6267335;22;20401;-88
2021/05/10 10:06:20;;;;;;;3.90;2.90;;;24.10;91.40;;;;;;6266498;22;20393;-89
2021/05/10 10:08:49;;;;;;;3.70;2.80;;;24.10;91.10;;;;;;6266284;22;20699;-89
2021/05/10 10:11:20;;;;;;;4.40;2.57;;;24.10;91.20;;;;;;6266892;22;20867;-90
2021/05/10 10:13:47;;;;;;;4.60;3.27;;;24.10;91.30;;;;;;6267600;22;20401;-91
2021/05/10 10:16:15;;;;;;;3.10;2.87;;;23.90;90.30;;;;;;6270851;22;20423;-91
2021/05/10 10:18:42;;;;;;;3.37;3.03;;;23.60;91.20;;;;;;6269866;22;20432;-92
2021/05/10 10:21:10;;;;;;;3.13;2.60;;;23.80;90.30;;;;;;6267397;22;20450;-88
2021/05/10 10:23:37;;;;;;;3.57;2.60;;;24.20;90.90;;;;;;6267063;22;20705;-88
2021/05/10 10:26:11;;;;;;;3.20;2.60;;;24.30;90.50;;;;;;6266965;22;20727;-87
2021/05/10 10:28:42;;;;;;;8.43;2.73;;;24.60;90.30;;;;;;6267526;22;20400;-88
2021/05/10 10:31:31;;;;;;;6.00;2.90;;;24.70;88.70;;;;;;6268558;22;20381;-89
2021/05/10 10:34:03;;;;;;;4.07;2.40;;;23.90;90.20;;;;;;6265766;22;20400;-88
2021/05/10 10:36:57;;;;;;;2.80;2.37;;;24.00;90.40;;;;;;6266821;22;20415;-88
2021/05/10 10:39:27;;;;;;;2.83;2.60;;;24.20;89.10;;;;;;6266115;22;20519;-87
2021/05/10 10:42:12;;;;;;;2.67;2.47;;;24.00;90.10;;;;;;6266746;22;20403;-89
2021/05/10 10:44:48;;;;;;;3.97;2.63;;;24.20;88.70;;;;;;6265459;22;20396;-85
2021/05/10 10:47:36;;;;;;;4.50;2.17;;;24.20;89.70;;;;;;6267054;22;20397;-86
2021/05/10 10:50:03;;;;;;;2.27;2.00;;;24.20;89.20;;;;;;6240603;22;20901;-88
2021/05/10 10:52:30;;;;;;;12.13;11.03;;;24.60;84.90;;;;;;6266750;22;20410;-88
2021/05/10 10:55:27;;;;;;;3.50;3.30;;;24.50;86.80;;;;;;6266916;22;20655;-88
2021/05/10 10:57:53;;;;;;;4.80;4.40;;;24.70;85.60;;;;;;6264213;22;20510;-87
2021/05/10 11:00:21;;;;;;;9.70;2.30;;;24.30;85.20;;;;;;6266456;22;20388;-88
2021/05/10 11:02:52;;;;;;;2.23;1.40;;;23.80;83.80;;;;;;6266427;22;20385;-86
2021/05/10 11:05:22;;;;;;;4.90;1.60;;;23.00;86.10;;;;;;6266492;22;20479;-87
2021/05/10 11:07:57;;;;;;;1.40;1.30;;;22.70;89.50;;;;;;6265914;22;20415;-84
2021/05/10 11:10:50;;;;;;;3.90;1.53;;;22.50;89.50;;;;;;6266685;22;20400;-85
2021/05/10 11:13:28;;;;;;;6.27;1.50;;;22.20;88.60;;;;;;6266055;22;20381;-86
2021/05/10 11:15:57;;;;;;;2.37;1.20;;;21.80;90.90;;;;;;6265421;22;20484;-86
2021/05/10 11:18:36;;;;;;;1.47;1.37;;;21.80;90.70;;;;;;6266633;22;20437;-86
2021/05/10 11:21:03;;;;;;;1.50;1.17;;;21.70;90.60;;;;;;6266619;22;20397;-88
2021/05/10 11:23:30;;;;;;;3.70;1.23;;;21.60;91.20;;;;;;6265718;22;20405;-85
2021/05/10 11:26:07;;;;;;;1.87;1.30;;;21.70;91.30;;;;;;6265962;22;20464;-86
2021/05/10 11:28:32;;;;;;;1.87;1.20;;;21.30;90.90;;;;;;6265522;22;20712;-86
2021/05/10 11:31:12;;;;;;;6.60;2.03;;;21.20;91.50;;;;;;6265404;22;20393;-85
2021/05/10 11:33:53;;;;;;;1.60;1.50;;;20.90;91.90;;;;;;6265585;22;20184;-87
2021/05/10 11:36:24;;;;;;;1.07;1.00;;;21.20;92.40;;;;;;6266043;22;20956;-87
2021/05/10 11:39:09;;;;;;;1.63;1.20;;;21.10;91.50;;;;;;6266163;22;20452;-85
2021/05/10 11:41:37;;;;;;;2.57;1.27;;;20.90;92.20;;;;;;6264679;22;20397;-86
2021/05/10 11:44:05;;;;;;;3.53;1.47;;;21.00;92.30;;;;;;6265735;22;20369;-85
2021/05/10 11:46:41;;;;;;;1.77;1.20;;;21.50;92.50;;;;;;6265600;22;20434;-86
2021/05/10 11:49:09;;;;;;;4.33;1.60;;;22.00;92.10;;;;;;6265914;22;20734;-87
2021/05/10 11:51:37;;;;;;;1.47;1.30;;;22.30;91.50;;;;;;6264971;22;20392;-84
2021/05/10 11:54:09;;;;;;;2.17;1.67;;;22.40;90.50;;;;;;6265791;22;20923;-85
2021/05/10 11:56:41;;;;;;;4.63;1.80;;;22.20;91.50;;;;;;6266191;22;20400;-85
2021/05/10 11:59:37;;;;;;;2.43;1.40;;;22.40;91.50;;;;;;6265339;22;20440;-84
2021/05/10 12:02:14;;;;;;;2.93;1.40;;;22.40;91.20;;;;;;6265951;22;20512;-84
2021/05/10 12:04:42;;;;;;;2.13;1.27;;;21.90;91.00;;;;;;6265578;22;20424;-84
2021/05/10 12:07:09;;;;;;;3.60;1.60;;;22.00;92.10;;;;;;6265236;22;20396;-84
2021/05/10 12:09:39;;;;;;;2.20;1.30;;;22.10;91.90;;;;;;6265821;22;20423;-84
2021/05/10 12:12:14;;;;;;;1.67;1.33;;;22.30;91.80;;;;;;6265603;22;20389;-84
2021/05/10 12:14:40;;;;;;;3.23;1.43;;;22.00;91.10;;;;;;6264759;22;20391;-84
2021/05/10 12:17:09;;;;;;;1.70;1.10;;;21.80;90.90;;;;;;6266051;22;20397;-84
2021/05/10 12:19:50;;;;;;;2.07;1.10;;;21.90;91.20;;;;;;6265570;22;20448;-83
2021/05/10 12:22:21;;;;;;;1.20;0.90;;;21.80;90.40;;;;;;6266176;22;20404;-84
2021/05/10 12:25:08;;;;;;;1.43;1.20;;;21.80;90.60;;;;;;6263771;22;20401;-84
2021/05/10 12:27:42;;;;;;;1.33;0.90;;;21.60;90.80;;;;;;6265923;22;20396;-84
2021/05/10 12:30:32;;;;;;;1.20;0.77;;;21.00;90.90;;;;;;6265636;22;20389;-84
2021/05/10 12:33:12;;;;;;;2.93;1.30;;;20.60;91.00;;;;;;6226161;22;20408;-84
2021/05/10 12:35:53;;;;;;;0.80;0.80;;;20.50;91.10;;;;;;6265478;22;20813;-85
2021/05/10 12:38:27;;;;;;;2.00;0.90;;;20.30;91.60;;;;;;6265370;22;20566;-84
2021/05/10 12:40:53;;;;;;;1.63;0.80;;;20.00;91.80;;;;;;6265903;22;20399;-84
2021/05/10 12:43:21;;;;;;;2.10;1.00;;;20.10;92.20;;;;;;6266042;22;20407;-84
2021/05/10 12:46:07;;;;;;;3.90;0.90;;;20.20;91.40;;;;;;6265826;22;20389;-84
2021/05/10 12:48:38;;;;;;;2.40;1.27;;;20.10;92.00;;;;;;6265132;22;20408;-84
2021/05/10 12:51:21;;;;;;;2.10;1.33;;;20.50;92.00;;;;;;6265025;22;20533;-84
2021/05/10 12:53:53;;;;;;;3.50;1.20;;;20.80;91.10;;;;;;6265141;22;20389;-82
2021/05/10 12:56:19;;;;;;;1.37;1.10;;;20.80;90.70;;;;;;6265890;22;20403;-85
2021/05/10 12:58:50;;;;;;;1.07;0.70;;;20.50;91.40;;;;;;6257547;22;20813;-83
2021/05/10 13:01:25;;;;;;;1.33;0.93;;;20.30;91.40;;;;;;6260442;22;20393;-83
2021/05/10 13:04:14;;;;;;;1.13;1.00;;;20.30;92.50;;;;;;6261144;22;21030;-84
2021/05/10 13:06:47;;;;;;;2.60;1.17;;;20.50;91.80;;;;;;6259836;22;20397;-84
2021/05/10 13:09:28;;;;;;;0.80;0.80;;;20.60;92.30;;;;;;6263384;22;20464;-85
2021/05/10 13:12:10;;;;;;;2.50;1.17;;;20.90;90.60;;;;;;6261068;22;20435;-86
2021/05/10 13:14:43;;;;;;;3.47;1.10;;;20.70;90.00;;;;;;6263200;22;20396;-86
2021/05/10 13:22:49;;;;;;;0.93;0.50;;;21.20;89.70;;;;;;6264019;22;20520;-85
2021/05/10 13:31:12;;;;;;;2.40;0.70;;;21.10;85.50;;;;;;6263287;22;20392;-84
2021/05/10 13:33:43;;;;;;;0.53;0.50;;;20.90;88.40;;;;;;6261480;22;20660;-84
2021/05/10 13:36:39;;;;;;;0.70;0.50;;;21.60;89.40;;;;;;6261044;22;20941;-85
2021/05/10 13:39:06;;;;;;;5.87;1.50;;;22.10;87.00;;;;;;6263036;22;20432;-85
2021/05/10 13:41:40;;;;;;;3.13;0.60;;;22.70;84.80;;;;;;6261421;22;20416;-85